Terminal Aerodrome Forecast
Issued by NWS New Orleans/Baton Rouge, LA

Home | Current Version | Previous Version | Text Only | Print | Product List | Glossary On
Versions: 1 2 3 4 5 6 7 8 9 10 11 12 13 14 15 16 17 18 19 20 21 22 23 24 25
000
FTUS44 KLIX 211121
TAFBTR
TAF
KBTR 211121Z 2112/2212 22004KT P6SM VCSH BKN006 OVC010
     FM211500 26005KT P6SM VCSH BKN015
     FM211700 26006KT P6SM VCSH BKN035
     FM220500 30004KT P6SM BKN050
     FM220900 32004KT 2SM BR SCT010=

USA.gov is the U.S. government's official web portal to all federal, state and local government web resources and services.